sensor_id;sensor_type;location;lat;lon;timestamp;pressure;altitude;pressure_sealevel;temperature;humidity
32197;BME280;18697;42.770;23.400;2023-05-24T00:01:28;95421.75;;;18.54;60.41
32197;BME280;18697;42.770;23.400;2023-05-24T00:03:54;95405.56;;;18.30;60.24
32197;BME280;18697;42.770;23.400;2023-05-24T00:06:24;95415.53;;;18.25;59.64
32197;BME280;18697;42.770;23.400;2023-05-24T00:08:51;95416.09;;;18.18;61.29
32197;BME280;18697;42.770;23.400;2023-05-24T00:11:17;95409.22;;;18.14;60.46
32197;BME280;18697;42.770;23.400;2023-05-24T00:13:42;95422.53;;;18.08;62.74
32197;BME280;18697;42.770;23.400;2023-05-24T00:16:07;95413.38;;;18.01;63.70
32197;BME280;18697;42.770;23.400;2023-05-24T00:18:33;95413.19;;;17.88;62.84
32197;BME280;18697;42.770;23.400;2023-05-24T00:20:58;95408.34;;;17.83;63.63
32197;BME280;18697;42.770;23.400;2023-05-24T00:23:24;95412.00;;;17.67;63.89
32197;BME280;18697;42.770;23.400;2023-05-24T00:25:53;95395.94;;;17.56;63.84
32197;BME280;18697;42.770;23.400;2023-05-24T00:28:18;95398.75;;;17.56;62.39
32197;BME280;18697;42.770;23.400;2023-05-24T00:30:43;95406.41;;;17.56;63.74
32197;BME280;18697;42.770;23.400;2023-05-24T00:33:09;95387.81;;;17.47;64.62
32197;BME280;18697;42.770;23.400;2023-05-24T00:35:34;95398.03;;;17.33;60.20
32197;BME280;18697;42.770;23.400;2023-05-24T00:38:00;95398.59;;;17.21;61.72
32197;BME280;18697;42.770;23.400;2023-05-24T00:40:25;95393.31;;;16.84;63.25
32197;BME280;18697;42.770;23.400;2023-05-24T00:42:50;95389.16;;;16.01;63.36
32197;BME280;18697;42.770;23.400;2023-05-24T00:45:16;95387.16;;;16.29;69.15
32197;BME280;18697;42.770;23.400;2023-05-24T00:47:41;95385.38;;;16.54;69.28
32197;BME280;18697;42.770;23.400;2023-05-24T00:50:08;95389.47;;;16.70;69.51
32197;BME280;18697;42.770;23.400;2023-05-24T00:52:35;95387.94;;;16.91;69.74
32197;BME280;18697;42.770;23.400;2023-05-24T00:55:01;95396.34;;;17.02;65.63
32197;BME280;18697;42.770;23.400;2023-05-24T00:57:27;95397.56;;;17.13;64.52
32197;BME280;18697;42.770;23.400;2023-05-24T00:59:54;95399.84;;;17.25;65.37
32197;BME280;18697;42.770;23.400;2023-05-24T01:02:20;95403.16;;;17.35;64.82
32197;BME280;18697;42.770;23.400;2023-05-24T01:04:46;95389.13;;;17.29;64.38
32197;BME280;18697;42.770;23.400;2023-05-24T01:12:19;95402.34;;;17.46;66.04
32197;BME280;18697;42.770;23.400;2023-05-24T01:15:03;95401.34;;;17.37;65.66
32197;BME280;18697;42.770;23.400;2023-05-24T01:20:05;95404.69;;;17.30;62.58
32197;BME280;18697;42.770;23.400;2023-05-24T01:27:49;95421.31;;;16.50;64.88
32197;BME280;18697;42.770;23.400;2023-05-24T01:30:15;95423.03;;;16.08;68.33
32197;BME280;18697;42.770;23.400;2023-05-24T01:32:41;95417.72;;;16.22;70.48
32197;BME280;18697;42.770;23.400;2023-05-24T01:35:07;95418.19;;;16.03;66.49
32197;BME280;18697;42.770;23.400;2023-05-24T01:37:32;95419.63;;;15.82;66.61
32197;BME280;18697;42.770;23.400;2023-05-24T01:39:58;95412.28;;;14.94;67.41
32197;BME280;18697;42.770;23.400;2023-05-24T01:42:49;95414.31;;;14.93;75.26
32197;BME280;18697;42.770;23.400;2023-05-24T01:45:34;95415.31;;;14.53;70.76
32197;BME280;18697;42.770;23.400;2023-05-24T01:48:07;95420.63;;;14.51;70.21
32197;BME280;18697;42.770;23.400;2023-05-24T01:50:45;95418.03;;;13.96;73.33
32197;BME280;18697;42.770;23.400;2023-05-24T01:53:14;95417.00;;;13.93;73.99
32197;BME280;18697;42.770;23.400;2023-05-24T01:55:42;95412.44;;;14.22;80.27
32197;BME280;18697;42.770;23.400;2023-05-24T01:58:09;95413.31;;;14.59;78.99
32197;BME280;18697;42.770;23.400;2023-05-24T02:00:37;95411.59;;;15.04;77.40
32197;BME280;18697;42.770;23.400;2023-05-24T02:03:03;95406.97;;;15.38;76.84
32197;BME280;18697;42.770;23.400;2023-05-24T02:05:31;95403.19;;;16.18;75.60
32197;BME280;18697;42.770;23.400;2023-05-24T02:07:57;95413.66;;;16.39;71.19
32197;BME280;18697;42.770;23.400;2023-05-24T02:10:23;95403.47;;;16.42;70.30
32197;BME280;18697;42.770;23.400;2023-05-24T02:12:48;95407.53;;;16.41;71.14
32197;BME280;18697;42.770;23.400;2023-05-24T02:15:13;95403.97;;;16.52;69.36
32197;BME280;18697;42.770;23.400;2023-05-24T02:17:40;95406.56;;;16.66;71.15
32197;BME280;18697;42.770;23.400;2023-05-24T02:20:07;95416.75;;;16.69;69.13
32197;BME280;18697;42.770;23.400;2023-05-24T02:22:32;95420.53;;;16.55;67.16
32197;BME280;18697;42.770;23.400;2023-05-24T02:24:58;95408.06;;;16.56;67.56
32197;BME280;18697;42.770;23.400;2023-05-24T02:27:23;95418.03;;;16.68;67.23
32197;BME280;18697;42.770;23.400;2023-05-24T02:29:49;95415.75;;;16.72;67.92
32197;BME280;18697;42.770;23.400;2023-05-24T02:32:14;95412.41;;;16.63;67.18
32197;BME280;18697;42.770;23.400;2023-05-24T02:34:40;95409.09;;;16.64;65.43
32197;BME280;18697;42.770;23.400;2023-05-24T02:37:06;95395.09;;;16.70;68.55
32197;BME280;18697;42.770;23.400;2023-05-24T02:39:32;95399.41;;;16.88;69.74
32197;BME280;18697;42.770;23.400;2023-05-24T02:41:57;95399.41;;;16.88;66.55
32197;BME280;18697;42.770;23.400;2023-05-24T02:44:23;95402.47;;;17.01;68.80
32197;BME280;18697;42.770;23.400;2023-05-24T02:46:48;95398.13;;;17.05;68.70
32197;BME280;18697;42.770;23.400;2023-05-24T02:49:13;95400.66;;;17.09;64.81
32197;BME280;18697;42.770;23.400;2023-05-24T02:51:39;95399.66;;;17.01;65.21
32197;BME280;18697;42.770;23.400;2023-05-24T02:54:05;95409.34;;;17.05;66.05
32197;BME280;18697;42.770;23.400;2023-05-24T02:56:31;95405.78;;;17.05;66.40
32197;BME280;18697;42.770;23.400;2023-05-24T02:58:57;95406.78;;;17.07;65.83
32197;BME280;18697;42.770;23.400;2023-05-24T03:01:22;95407.00;;;17.15;66.56
32197;BME280;18697;42.770;23.400;2023-05-24T03:03:48;95407.81;;;17.04;64.72
32197;BME280;18697;42.770;23.400;2023-05-24T03:06:13;95418.50;;;17.12;66.31
32197;BME280;18697;42.770;23.400;2023-05-24T03:08:40;95418.03;;;16.91;66.88
32197;BME280;18697;42.770;23.400;2023-05-24T03:11:05;95403.00;;;16.83;67.07
32197;BME280;18697;42.770;23.400;2023-05-24T03:13:31;95408.84;;;16.85;67.51
32197;BME280;18697;42.770;23.400;2023-05-24T03:15:56;95425.19;;;16.81;66.14
32197;BME280;18697;42.770;23.400;2023-05-24T03:18:22;95417.53;;;16.87;68.82
32197;BME280;18697;42.770;23.400;2023-05-24T03:20:47;95423.91;;;16.93;66.41
32197;BME280;18697;42.770;23.400;2023-05-24T03:23:12;95422.88;;;16.96;66.62
32197;BME280;18697;42.770;23.400;2023-05-24T03:25:39;95412.69;;;16.93;67.18
32197;BME280;18697;42.770;23.400;2023-05-24T03:28:04;95415.72;;;16.95;66.70
32197;BME280;18697;42.770;23.400;2023-05-24T03:30:30;95418.03;;;16.96;65.52
32197;BME280;18697;42.770;23.400;2023-05-24T03:32:55;95422.88;;;16.96;64.37
32197;BME280;18697;42.770;23.400;2023-05-24T03:35:21;95427.47;;;16.99;66.66
32197;BME280;18697;42.770;23.400;2023-05-24T03:37:46;95427.47;;;16.82;61.38
32197;BME280;18697;42.770;23.400;2023-05-24T03:40:11;95438.91;;;16.62;65.90
32197;BME280;18697;42.770;23.400;2023-05-24T03:42:37;95428.94;;;16.55;64.35
32197;BME280;18697;42.770;23.400;2023-05-24T03:45:04;95442.97;;;16.61;67.02
32197;BME280;18697;42.770;23.400;2023-05-24T03:47:30;95433.84;;;16.66;68.45
32197;BME280;18697;42.770;23.400;2023-05-24T03:49:55;95446.31;;;16.70;66.00
32197;BME280;18697;42.770;23.400;2023-05-24T03:52:21;95446.28;;;17.15;70.04
32197;BME280;18697;42.770;23.400;2023-05-24T03:54:46;95438.09;;;17.39;68.29
32197;BME280;18697;42.770;23.400;2023-05-24T03:57:11;95437.84;;;17.43;66.10
32197;BME280;18697;42.770;23.400;2023-05-24T03:59:37;95443.16;;;17.52;65.56
32197;BME280;18697;42.770;23.400;2023-05-24T04:02:02;95449.81;;;17.55;65.36
32197;BME280;18697;42.770;23.400;2023-05-24T04:04:28;95444.69;;;17.53;65.00
32197;BME280;18697;42.770;23.400;2023-05-24T04:06:53;95450.84;;;17.40;64.39
32197;BME280;18697;42.770;23.400;2023-05-24T04:09:21;95462.09;;;17.40;66.69
32197;BME280;18697;42.770;23.400;2023-05-24T04:11:46;95452.88;;;17.57;67.08
32197;BME280;18697;42.770;23.400;2023-05-24T04:14:11;95450.31;;;17.70;65.33
32197;BME280;18697;42.770;23.400;2023-05-24T04:16:37;95460.00;;;17.69;63.72
32197;BME280;18697;42.770;23.400;2023-05-24T04:19:03;95451.84;;;17.54;63.76
32197;BME280;18697;42.770;23.400;2023-05-24T04:21:29;95451.63;;;17.41;63.85
32197;BME280;18697;42.770;23.400;2023-05-24T04:23:54;95450.88;;;17.29;62.52
32197;BME280;18697;42.770;23.400;2023-05-24T04:26:20;95461.34;;;17.23;64.52
32197;BME280;18697;42.770;23.400;2023-05-24T04:28:46;95461.56;;;17.36;65.47
32197;BME280;18697;42.770;23.400;2023-05-24T04:31:12;95465.41;;;17.33;64.83
32197;BME280;18697;42.770;23.400;2023-05-24T04:33:39;95461.06;;;17.32;65.27
32197;BME280;18697;42.770;23.400;2023-05-24T04:36:05;95468.19;;;17.45;67.30
32197;BME280;18697;42.770;23.400;2023-05-24T04:38:32;95472.53;;;17.57;65.70
32197;BME280;18697;42.770;23.400;2023-05-24T04:41:00;95463.31;;;17.62;66.02
32197;BME280;18697;42.770;23.400;2023-05-24T04:43:27;95468.91;;;17.79;66.86
32197;BME280;18697;42.770;23.400;2023-05-24T04:45:53;95463.16;;;18.06;68.06
32197;BME280;18697;42.770;23.400;2023-05-24T04:48:22;95461.44;;;17.92;65.92
32197;BME280;18697;42.770;23.400;2023-05-24T04:50:52;95473.53;;;17.65;63.31
32197;BME280;18697;42.770;23.400;2023-05-24T04:53:18;95466.66;;;17.44;68.36
32197;BME280;18697;42.770;23.400;2023-05-24T04:55:44;95473.31;;;16.62;65.28
32197;BME280;18697;42.770;23.400;2023-05-24T04:58:09;95479.38;;;16.33;67.33
32197;BME280;18697;42.770;23.400;2023-05-24T05:00:35;95476.44;;;15.88;68.66
32197;BME280;18697;42.770;23.400;2023-05-24T05:03:00;95482.09;;;15.99;74.96
32197;BME280;18697;42.770;23.400;2023-05-24T05:05:26;95474.16;;;15.92;69.89
32197;BME280;18697;42.770;23.400;2023-05-24T05:07:51;95479.72;;;15.81;72.41
32197;BME280;18697;42.770;23.400;2023-05-24T05:10:16;95491.44;;;15.85;75.76
32197;BME280;18697;42.770;23.400;2023-05-24T05:12:42;95485.88;;;15.96;74.55
32197;BME280;18697;42.770;23.400;2023-05-24T05:15:09;95483.09;;;16.02;70.30
32197;BME280;18697;42.770;23.400;2023-05-24T05:17:34;95482.41;;;16.18;74.15
32197;BME280;18697;42.770;23.400;2023-05-24T05:20:00;95493.16;;;16.31;73.60
32197;BME280;18697;42.770;23.400;2023-05-24T05:22:25;95487.13;;;15.90;71.00
32197;BME280;18697;42.770;23.400;2023-05-24T05:24:51;95485.66;;;16.05;72.25
32197;BME280;18697;42.770;23.400;2023-05-24T05:27:16;95484.44;;;15.21;72.96
32197;BME280;18697;42.770;23.400;2023-05-24T05:29:41;95490.56;;;15.57;74.51
32197;BME280;18697;42.770;23.400;2023-05-24T05:32:07;95494.97;;;15.80;74.69
32197;BME280;18697;42.770;23.400;2023-05-24T05:34:32;95490.56;;;15.62;75.85
32197;BME280;18697;42.770;23.400;2023-05-24T05:36:57;95498.00;;;15.34;74.77
32197;BME280;18697;42.770;23.400;2023-05-24T05:39:23;95492.41;;;15.34;75.99
32197;BME280;18697;42.770;23.400;2023-05-24T05:41:48;95489.28;;;15.58;76.81
32197;BME280;18697;42.770;23.400;2023-05-24T05:44:13;95490.81;;;15.59;75.41
32197;BME280;18697;42.770;23.400;2023-05-24T05:46:39;95488.53;;;15.57;77.89
32197;BME280;18697;42.770;23.400;2023-05-24T05:49:07;95488.88;;;15.82;74.83
32197;BME280;18697;42.770;23.400;2023-05-24T05:51:33;95496.34;;;16.01;77.27
32197;BME280;18697;42.770;23.400;2023-05-24T05:53:59;95496.91;;;16.17;73.31
32197;BME280;18697;42.770;23.400;2023-05-24T05:56:24;95494.34;;;16.07;72.92
32197;BME280;18697;42.770;23.400;2023-05-24T05:58:51;95494.63;;;16.21;74.14
32197;BME280;18697;42.770;23.400;2023-05-24T06:01:16;95494.69;;;16.32;73.15
32197;BME280;18697;42.770;23.400;2023-05-24T06:03:42;95502.69;;;15.96;74.34
32197;BME280;18697;42.770;23.400;2023-05-24T06:06:07;95506.81;;;16.06;73.73
32197;BME280;18697;42.770;23.400;2023-05-24T06:08:33;95501.81;;;16.44;76.43
32197;BME280;18697;42.770;23.400;2023-05-24T06:11:00;95505.69;;;16.63;74.24
32197;BME280;18697;42.770;23.400;2023-05-24T06:13:26;95496.25;;;16.61;72.83
32197;BME280;18697;42.770;23.400;2023-05-24T06:15:52;95507.53;;;16.89;73.04
32197;BME280;18697;42.770;23.400;2023-05-24T06:18:18;95499.13;;;16.89;71.52
32197;BME280;18697;42.770;23.400;2023-05-24T06:20:43;95510.34;;;16.83;71.18
32197;BME280;18697;42.770;23.400;2023-05-24T06:23:09;95503.34;;;16.39;72.00
32197;BME280;18697;42.770;23.400;2023-05-24T06:25:35;95506.94;;;16.57;71.91
32197;BME280;18697;42.770;23.400;2023-05-24T06:28:00;95505.16;;;16.59;70.77
32197;BME280;18697;42.770;23.400;2023-05-24T06:30:25;95505.25;;;16.93;69.53
32197;BME280;18697;42.770;23.400;2023-05-24T06:32:51;95503.41;;;17.46;72.02
32197;BME280;18697;42.770;23.400;2023-05-24T06:35:16;95500.03;;;17.86;67.39
32197;BME280;18697;42.770;23.400;2023-05-24T06:37:41;95502.03;;;17.97;67.19
32197;BME280;18697;42.770;23.400;2023-05-24T06:40:07;95491.03;;;18.04;65.33
32197;BME280;18697;42.770;23.400;2023-05-24T06:42:36;95499.84;;;18.31;64.88
32197;BME280;18697;42.770;23.400;2023-05-24T06:45:02;95495.22;;;18.39;64.43
32197;BME280;18697;42.770;23.400;2023-05-24T06:47:27;95493.19;;;18.34;64.32
32197;BME280;18697;42.770;23.400;2023-05-24T06:49:53;95501.53;;;18.51;63.13
32197;BME280;18697;42.770;23.400;2023-05-24T06:52:18;95498.16;;;18.63;62.37
32197;BME280;18697;42.770;23.400;2023-05-24T06:54:44;95490.25;;;18.97;64.17
32197;BME280;18697;42.770;23.400;2023-05-24T06:57:09;95489.50;;;19.27;63.61
32197;BME280;18697;42.770;23.400;2023-05-24T06:59:34;95476.63;;;19.61;63.28
32197;BME280;18697;42.770;23.400;2023-05-24T07:02:03;95481.50;;;19.85;60.56
32197;BME280;18697;42.770;23.400;2023-05-24T07:04:28;95486.91;;;20.26;60.85
32197;BME280;18697;42.770;23.400;2023-05-24T07:06:54;95479.25;;;20.46;58.34
32197;BME280;18697;42.770;23.400;2023-05-24T07:09:19;95479.63;;;20.74;59.59
32197;BME280;18697;42.770;23.400;2023-05-24T07:11:45;95477.97;;;20.22;57.69
32197;BME280;18697;42.770;23.400;2023-05-24T07:14:10;95479.81;;;20.20;57.25
32197;BME280;18697;42.770;23.400;2023-05-24T07:16:36;95476.00;;;20.36;58.14
32197;BME280;18697;42.770;23.400;2023-05-24T07:19:02;95484.19;;;20.58;59.20
32197;BME280;18697;42.770;23.400;2023-05-24T07:21:27;95475.97;;;20.79;59.36
32197;BME280;18697;42.770;23.400;2023-05-24T07:23:52;95479.88;;;20.89;58.25
32197;BME280;18697;42.770;23.400;2023-05-24T07:26:18;95473.03;;;21.17;56.41
32197;BME280;18697;42.770;23.400;2023-05-24T07:28:43;95481.38;;;21.41;56.66
32197;BME280;18697;42.770;23.400;2023-05-24T07:31:09;95487.81;;;21.68;55.33
32197;BME280;18697;42.770;23.400;2023-05-24T07:33:35;95494.81;;;21.80;55.08
32197;BME280;18697;42.770;23.400;2023-05-24T07:36:02;95475.47;;;21.97;54.81
32197;BME280;18697;42.770;23.400;2023-05-24T07:38:28;95475.16;;;22.14;54.19
32197;BME280;18697;42.770;23.400;2023-05-24T07:40:58;95478.75;;;22.28;54.78
32197;BME280;18697;42.770;23.400;2023-05-24T07:43:24;95476.63;;;22.42;54.55
32197;BME280;18697;42.770;23.400;2023-05-24T07:45:51;95479.75;;;22.51;53.71
32197;BME280;18697;42.770;23.400;2023-05-24T07:48:16;95477.44;;;22.16;52.78
32197;BME280;18697;42.770;23.400;2023-05-24T07:50:42;95474.25;;;22.33;53.35
32197;BME280;18697;42.770;23.400;2023-05-24T07:53:15;95470.81;;;22.60;54.37
32197;BME280;18697;42.770;23.400;2023-05-24T07:55:41;95474.50;;;22.82;54.38
32197;BME280;18697;42.770;23.400;2023-05-24T07:58:06;95473.94;;;22.70;51.93
32197;BME280;18697;42.770;23.400;2023-05-24T08:00:32;95476.31;;;22.92;52.53
32197;BME280;18697;42.770;23.400;2023-05-24T08:03:01;95468.28;;;23.04;51.72
32197;BME280;18697;42.770;23.400;2023-05-24T08:05:27;95470.09;;;22.94;51.03
32197;BME280;18697;42.770;23.400;2023-05-24T08:07:54;95466.06;;;23.10;51.25
32197;BME280;18697;42.770;23.400;2023-05-24T08:10:19;95465.13;;;23.28;52.56
32197;BME280;18697;42.770;23.400;2023-05-24T08:12:45;95462.28;;;23.49;50.54
32197;BME280;18697;42.770;23.400;2023-05-24T08:15:10;95458.22;;;23.58;51.12
32197;BME280;18697;42.770;23.400;2023-05-24T08:17:37;95461.41;;;23.83;52.38
32197;BME280;18697;42.770;23.400;2023-05-24T08:20:03;95463.38;;;23.96;52.21
32197;BME280;18697;42.770;23.400;2023-05-24T08:22:38;95445.28;;;24.06;52.27
32197;BME280;18697;42.770;23.400;2023-05-24T08:25:04;95448.75;;;24.20;52.53
32197;BME280;18697;42.770;23.400;2023-05-24T08:27:30;95442.47;;;24.42;51.61
32197;BME280;18697;42.770;23.400;2023-05-24T08:29:57;95447.78;;;24.53;51.10
32197;BME280;18697;42.770;23.400;2023-05-24T08:32:22;95444.44;;;24.70;49.87
32197;BME280;18697;42.770;23.400;2023-05-24T08:34:48;95444.28;;;24.76;48.34
32197;BME280;18697;42.770;23.400;2023-05-24T08:37:13;95452.06;;;24.90;47.42
32197;BME280;18697;42.770;23.400;2023-05-24T08:39:43;95445.06;;;24.92;47.91
32197;BME280;18697;42.770;23.400;2023-05-24T08:42:08;95438.50;;;24.97;46.15
32197;BME280;18697;42.770;23.400;2023-05-24T08:44:41;95446.78;;;24.95;45.11
32197;BME280;18697;42.770;23.400;2023-05-24T08:47:12;95442.44;;;24.94;44.86
32197;BME280;18697;42.770;23.400;2023-05-24T08:49:39;95431.97;;;24.81;45.08
32197;BME280;18697;42.770;23.400;2023-05-24T08:52:05;95441.72;;;25.08;48.78
32197;BME280;18697;42.770;23.400;2023-05-24T08:54:35;95443.06;;;25.23;46.24
32197;BME280;18697;42.770;23.400;2023-05-24T08:57:01;95442.28;;;25.30;46.27
32197;BME280;18697;42.770;23.400;2023-05-24T08:59:27;95443.06;;;25.23;40.63
32197;BME280;18697;42.770;23.400;2023-05-24T09:01:53;95439.66;;;25.32;43.95
32197;BME280;18697;42.770;23.400;2023-05-24T09:04:23;95451.22;;;25.49;43.45
32197;BME280;18697;42.770;23.400;2023-05-24T09:06:48;95436.00;;;24.93;40.54
32197;BME280;18697;42.770;23.400;2023-05-24T09:09:17;95438.69;;;25.06;43.13
32197;BME280;18697;42.770;23.400;2023-05-24T09:11:44;95442.69;;;25.18;40.43
32197;BME280;18697;42.770;23.400;2023-05-24T09:14:12;95435.28;;;25.08;40.16
32197;BME280;18697;42.770;23.400;2023-05-24T09:16:38;95434.28;;;24.90;39.78
32197;BME280;18697;42.770;23.400;2023-05-24T09:19:03;95433.56;;;24.97;41.60
32197;BME280;18697;42.770;23.400;2023-05-24T09:21:29;95437.75;;;25.27;41.42
32197;BME280;18697;42.770;23.400;2023-05-24T09:23:54;95433.94;;;25.01;40.62
32197;BME280;18697;42.770;23.400;2023-05-24T09:26:21;95431.53;;;25.20;41.26
32197;BME280;18697;42.770;23.400;2023-05-24T09:28:46;95426.19;;;25.47;41.78
32197;BME280;18697;42.770;23.400;2023-05-24T09:31:12;95433.03;;;25.52;39.84
32197;BME280;18697;42.770;23.400;2023-05-24T09:33:38;95431.69;;;25.15;40.15
32197;BME280;18697;42.770;23.400;2023-05-24T09:36:04;95428.47;;;25.03;40.23
32197;BME280;18697;42.770;23.400;2023-05-24T09:38:31;95424.47;;;25.29;37.95
32197;BME280;18697;42.770;23.400;2023-05-24T09:41:02;95425.44;;;25.09;39.19
32197;BME280;18697;42.770;23.400;2023-05-24T09:43:29;95424.69;;;25.24;38.99
32197;BME280;18697;42.770;23.400;2023-05-24T09:45:56;95430.19;;;25.37;38.39
32197;BME280;18697;42.770;23.400;2023-05-24T09:48:22;95422.59;;;25.47;37.59
32197;BME280;18697;42.770;23.400;2023-05-24T09:51:17;95422.03;;;25.18;37.76
32197;BME280;18697;42.770;23.400;2023-05-24T09:53:43;95421.84;;;25.16;37.89
32197;BME280;18697;42.770;23.400;2023-05-24T09:56:11;95424.88;;;25.26;36.52
32197;BME280;18697;42.770;23.400;2023-05-24T09:58:38;95417.84;;;25.42;36.84
32197;BME280;18697;42.770;23.400;2023-05-24T10:01:07;95422.59;;;25.62;36.32
32197;BME280;18697;42.770;23.400;2023-05-24T10:03:35;95419.56;;;25.45;35.19
32197;BME280;18697;42.770;23.400;2023-05-24T10:06:05;95422.22;;;25.58;35.78
32197;BME280;18697;42.770;23.400;2023-05-24T10:08:34;95421.09;;;25.46;35.38
32197;BME280;18697;42.770;23.400;2023-05-24T10:11:04;95416.16;;;25.77;36.37
32197;BME280;18697;42.770;23.400;2023-05-24T10:13:31;95415.75;;;25.88;35.13
32197;BME280;18697;42.770;23.400;2023-05-24T10:15:57;95407.16;;;26.03;34.77
32197;BME280;18697;42.770;23.400;2023-05-24T10:18:23;95409.91;;;25.78;35.74
32197;BME280;18697;42.770;23.400;2023-05-24T10:20:49;95399.91;;;26.17;36.17
32197;BME280;18697;42.770;23.400;2023-05-24T10:23:19;95402.09;;;26.49;34.28
32197;BME280;18697;42.770;23.400;2023-05-24T10:26:15;95407.38;;;26.61;33.90
32197;BME280;18697;42.770;23.400;2023-05-24T10:28:44;95404.94;;;26.82;34.02
32197;BME280;18697;42.770;23.400;2023-05-24T10:31:14;95416.88;;;26.88;32.72
32197;BME280;18697;42.770;23.400;2023-05-24T10:33:42;95394.22;;;26.73;34.91
32197;BME280;18697;42.770;23.400;2023-05-24T10:36:10;95403.84;;;26.77;32.26
32197;BME280;18697;42.770;23.400;2023-05-24T10:57:00;95365.19;;;26.67;34.33
32197;BME280;18697;42.770;23.400;2023-05-24T10:59:30;95365.34;;;25.81;34.89
32197;BME280;18697;42.770;23.400;2023-05-24T11:01:59;95367.03;;;25.84;33.90
32197;BME280;18697;42.770;23.400;2023-05-24T11:04:31;95359.16;;;26.07;33.44
32197;BME280;18697;42.770;23.400;2023-05-24T11:07:00;95374.84;;;26.31;33.40
32197;BME280;18697;42.770;23.400;2023-05-24T11:09:27;95362.78;;;26.56;36.21
32197;BME280;18697;42.770;23.400;2023-05-24T11:11:55;95366.16;;;26.62;35.07
32197;BME280;18697;42.770;23.400;2023-05-24T11:14:26;95367.84;;;26.65;33.94
32197;BME280;18697;42.770;23.400;2023-05-24T11:16:53;95355.75;;;26.81;32.87
32197;BME280;18697;42.770;23.400;2023-05-24T11:19:22;95358.22;;;26.85;33.04
32197;BME280;18697;42.770;23.400;2023-05-24T11:21:49;95359.72;;;26.86;33.86
32197;BME280;18697;42.770;23.400;2023-05-24T11:24:19;95352.97;;;26.41;33.58
32197;BME280;18697;42.770;23.400;2023-05-24T11:26:46;95358.56;;;26.64;33.75
32197;BME280;18697;42.770;23.400;2023-05-24T11:29:12;95367.03;;;26.39;32.26
32197;BME280;18697;42.770;23.400;2023-05-24T11:31:46;95358.56;;;26.16;33.61
32197;BME280;18697;42.770;23.400;2023-05-24T11:34:12;95357.31;;;26.50;33.80
32197;BME280;18697;42.770;23.400;2023-05-24T11:36:37;95352.63;;;26.30;33.01
32197;BME280;18697;42.770;23.400;2023-05-24T11:39:07;95347.69;;;26.38;33.64
32197;BME280;18697;42.770;23.400;2023-05-24T11:41:37;95343.94;;;26.20;33.42
32197;BME280;18697;42.770;23.400;2023-05-24T11:44:03;95341.25;;;26.70;34.56
32197;BME280;18697;42.770;23.400;2023-05-24T11:46:29;95346.91;;;27.02;33.77
32197;BME280;18697;42.770;23.400;2023-05-24T11:48:58;95347.31;;;26.99;32.60
32197;BME280;18697;42.770;23.400;2023-05-24T11:51:28;95349.53;;;26.75;31.52
32197;BME280;18697;42.770;23.400;2023-05-24T11:53:58;95336.28;;;26.95;34.38
32197;BME280;18697;42.770;23.400;2023-05-24T11:56:25;95320.44;;;27.34;33.65
32197;BME280;18697;42.770;23.400;2023-05-24T11:58:58;95327.09;;;27.71;31.74
32197;BME280;18697;42.770;23.400;2023-05-24T12:01:28;95323.00;;;27.99;32.00
32197;BME280;18697;42.770;23.400;2023-05-24T12:03:55;95323.81;;;28.09;31.16
32197;BME280;18697;42.770;23.400;2023-05-24T12:06:21;95329.19;;;28.05;31.03
32197;BME280;18697;42.770;23.400;2023-05-24T12:08:47;95323.41;;;27.96;31.46
32197;BME280;18697;42.770;23.400;2023-05-24T12:11:13;95320.38;;;28.11;32.06
32197;BME280;18697;42.770;23.400;2023-05-24T12:13:39;95317.94;;;28.25;30.39
32197;BME280;18697;42.770;23.400;2023-05-24T12:16:05;95315.41;;;28.29;31.21
32197;BME280;18697;42.770;23.400;2023-05-24T12:18:31;95318.88;;;28.10;31.46
32197;BME280;18697;42.770;23.400;2023-05-24T12:20:57;95323.59;;;27.98;30.38
32197;BME280;18697;42.770;23.400;2023-05-24T12:23:24;95317.50;;;27.42;30.88
32197;BME280;18697;42.770;23.400;2023-05-24T12:25:49;95305.09;;;27.47;33.07
32197;BME280;18697;42.770;23.400;2023-05-24T12:28:18;95303.38;;;27.27;32.57
32197;BME280;18697;42.770;23.400;2023-05-24T12:30:43;95303.97;;;27.25;31.14
32197;BME280;18697;42.770;23.400;2023-05-24T12:33:09;95301.88;;;27.26;30.83
32197;BME280;18697;42.770;23.400;2023-05-24T12:35:36;95296.72;;;27.07;30.06
32197;BME280;18697;42.770;23.400;2023-05-24T12:38:01;95296.31;;;27.10;30.22
32197;BME280;18697;42.770;23.400;2023-05-24T12:40:32;95291.06;;;27.24;33.37
32197;BME280;18697;42.770;23.400;2023-05-24T12:42:57;95287.72;;;27.53;33.00
32197;BME280;18697;42.770;23.400;2023-05-24T12:45:23;95279.28;;;27.79;33.29
32197;BME280;18697;42.770;23.400;2023-05-24T12:47:50;95283.78;;;28.00;32.38
32197;BME280;18697;42.770;23.400;2023-05-24T12:50:21;95279.75;;;28.03;32.68
32197;BME280;18697;42.770;23.400;2023-05-24T12:52:48;95281.69;;;28.00;33.81
32197;BME280;18697;42.770;23.400;2023-05-24T12:55:26;95279.44;;;27.99;32.91
32197;BME280;18697;42.770;23.400;2023-05-24T12:57:53;95283.28;;;27.94;32.58
32197;BME280;18697;42.770;23.400;2023-05-24T13:00:21;95270.97;;;27.91;34.56
32197;BME280;18697;42.770;23.400;2023-05-24T13:02:48;95269.53;;;27.83;35.46
32197;BME280;18697;42.770;23.400;2023-05-24T13:05:14;95278.91;;;27.58;36.77
32197;BME280;18697;42.770;23.400;2023-05-24T13:07:42;95274.91;;;27.44;36.98
32197;BME280;18697;42.770;23.400;2023-05-24T13:10:08;95275.47;;;27.25;36.89
32197;BME280;18697;42.770;23.400;2023-05-24T13:12:34;95266.63;;;27.13;38.42
32197;BME280;18697;42.770;23.400;2023-05-24T13:15:00;95273.31;;;26.83;34.57
32197;BME280;18697;42.770;23.400;2023-05-24T13:17:25;95276.28;;;26.93;35.96
32197;BME280;18697;42.770;23.400;2023-05-24T13:19:51;95276.88;;;26.92;37.74